sensor_id;sensor_type;location;lat;lon;timestamp;P1;durP1;ratioP1;P2;durP2;ratioP2
4794;SDS011;2411;47.060;15.064;2024-03-23T00:54:13;1.20;;;1.20;;
4794;SDS011;2411;47.060;15.064;2024-03-23T00:56:39;1.80;;;1.40;;
4794;SDS011;2411;47.060;15.064;2024-03-23T00:59:05;1.30;;;1.13;;
4794;SDS011;2411;47.060;15.064;2024-03-23T01:01:31;1.77;;;1.30;;
4794;SDS011;2411;47.060;15.064;2024-03-23T01:03:57;1.30;;;1.20;;
4794;SDS011;2411;47.060;15.064;2024-03-23T01:06:23;1.40;;;1.30;;
4794;SDS011;2411;47.060;15.064;2024-03-23T01:08:49;1.23;;;1.23;;
4794;SDS011;2411;47.060;15.064;2024-03-23T01:11:15;1.43;;;1.33;;
4794;SDS011;2411;47.060;15.064;2024-03-23T01:13:41;2.40;;;1.43;;
4794;SDS011;2411;47.060;15.064;2024-03-23T01:16:07;1.73;;;1.63;;
4794;SDS011;2411;47.060;15.064;2024-03-23T01:18:33;1.40;;;1.30;;
4794;SDS011;2411;47.060;15.064;2024-03-23T01:20:59;1.70;;;1.27;;
4794;SDS011;2411;47.060;15.064;2024-03-23T01:23:25;1.43;;;1.27;;
4794;SDS011;2411;47.060;15.064;2024-03-23T01:25:51;1.80;;;1.70;;
4794;SDS011;2411;47.060;15.064;2024-03-23T01:28:19;1.77;;;1.43;;
4794;SDS011;2411;47.060;15.064;2024-03-23T01:30:45;1.40;;;1.30;;
4794;SDS011;2411;47.060;15.064;2024-03-23T01:33:11;1.40;;;1.30;;
4794;SDS011;2411;47.060;15.064;2024-03-23T01:35:37;1.40;;;1.30;;
4794;SDS011;2411;47.060;15.064;2024-03-23T01:38:04;2.20;;;1.50;;
4794;SDS011;2411;47.060;15.064;2024-03-23T01:40:30;1.23;;;1.23;;
4794;SDS011;2411;47.060;15.064;2024-03-23T01:42:57;2.33;;;1.10;;
4794;SDS011;2411;47.060;15.064;2024-03-23T01:45:27;4.90;;;1.10;;
4794;SDS011;2411;47.060;15.064;2024-03-23T01:47:53;1.87;;;1.77;;
4794;SDS011;2411;47.060;15.064;2024-03-23T01:50:19;1.03;;;1.03;;
4794;SDS011;2411;47.060;15.064;2024-03-23T01:52:46;1.20;;;1.20;;
4794;SDS011;2411;47.060;15.064;2024-03-23T01:55:13;1.20;;;1.20;;
4794;SDS011;2411;47.060;15.064;2024-03-23T01:57:39;1.00;;;1.00;;
4794;SDS011;2411;47.060;15.064;2024-03-23T02:00:05;1.10;;;1.10;;
4794;SDS011;2411;47.060;15.064;2024-03-23T02:02:32;1.00;;;1.00;;
4794;SDS011;2411;47.060;15.064;2024-03-23T02:04:58;1.97;;;1.20;;
4794;SDS011;2411;47.060;15.064;2024-03-23T02:07:24;1.43;;;1.33;;
4794;SDS011;2411;47.060;15.064;2024-03-23T02:09:50;1.30;;;1.20;;
4794;SDS011;2411;47.060;15.064;2024-03-23T02:12:17;1.03;;;1.03;;
4794;SDS011;2411;47.060;15.064;2024-03-23T02:14:44;2.27;;;1.37;;
4794;SDS011;2411;47.060;15.064;2024-03-23T02:17:10;1.30;;;1.20;;
4794;SDS011;2411;47.060;15.064;2024-03-23T02:19:36;3.10;;;1.07;;
4794;SDS011;2411;47.060;15.064;2024-03-23T02:22:02;1.40;;;1.40;;
4794;SDS011;2411;47.060;15.064;2024-03-23T02:24:29;1.83;;;1.73;;
4794;SDS011;2411;47.060;15.064;2024-03-23T02:26:55;1.33;;;1.23;;
4794;SDS011;2411;47.060;15.064;2024-03-23T02:29:20;1.30;;;1.30;;
4794;SDS011;2411;47.060;15.064;2024-03-23T02:31:46;4.00;;;1.43;;
4794;SDS011;2411;47.060;15.064;2024-03-23T02:34:13;1.27;;;1.27;;
4794;SDS011;2411;47.060;15.064;2024-03-23T02:36:39;1.63;;;1.30;;
4794;SDS011;2411;47.060;15.064;2024-03-23T02:39:04;1.73;;;1.63;;
4794;SDS011;2411;47.060;15.064;2024-03-23T02:41:30;1.57;;;1.47;;
4794;SDS011;2411;47.060;15.064;2024-03-23T02:43:56;1.27;;;1.27;;
4794;SDS011;2411;47.060;15.064;2024-03-23T02:46:22;1.10;;;1.10;;
4794;SDS011;2411;47.060;15.064;2024-03-23T02:48:49;1.50;;;1.40;;
4794;SDS011;2411;47.060;15.064;2024-03-23T02:51:15;0.93;;;0.93;;
4794;SDS011;2411;47.060;15.064;2024-03-23T02:53:41;1.23;;;1.00;;
4794;SDS011;2411;47.060;15.064;2024-03-23T02:56:07;1.50;;;1.40;;
4794;SDS011;2411;47.060;15.064;2024-03-23T02:58:33;1.27;;;1.27;;
4794;SDS011;2411;47.060;15.064;2024-03-23T03:00:59;1.47;;;1.37;;
4794;SDS011;2411;47.060;15.064;2024-03-23T03:03:25;2.40;;;1.40;;
4794;SDS011;2411;47.060;15.064;2024-03-23T03:05:55;1.20;;;1.20;;
4794;SDS011;2411;47.060;15.064;2024-03-23T03:08:22;2.83;;;1.37;;
4794;SDS011;2411;47.060;15.064;2024-03-23T03:10:48;1.33;;;1.33;;
4794;SDS011;2411;47.060;15.064;2024-03-23T03:13:14;1.00;;;1.00;;
4794;SDS011;2411;47.060;15.064;2024-03-23T03:15:43;1.33;;;1.23;;
4794;SDS011;2411;47.060;15.064;2024-03-23T03:18:09;1.30;;;1.20;;
4794;SDS011;2411;47.060;15.064;2024-03-23T03:20:39;1.00;;;1.00;;
4794;SDS011;2411;47.060;15.064;2024-03-23T03:23:05;1.07;;;1.07;;
4794;SDS011;2411;47.060;15.064;2024-03-23T03:25:32;1.07;;;1.07;;
4794;SDS011;2411;47.060;15.064;2024-03-23T03:27:58;5.73;;;1.60;;
4794;SDS011;2411;47.060;15.064;2024-03-23T03:30:24;1.10;;;1.10;;
4794;SDS011;2411;47.060;15.064;2024-03-23T03:32:53;1.37;;;1.37;;
4794;SDS011;2411;47.060;15.064;2024-03-23T03:35:19;3.40;;;1.33;;
4794;SDS011;2411;47.060;15.064;2024-03-23T03:37:45;1.53;;;1.40;;
4794;SDS011;2411;47.060;15.064;2024-03-23T03:40:11;1.00;;;1.00;;
4794;SDS011;2411;47.060;15.064;2024-03-23T03:42:40;1.40;;;1.30;;
4794;SDS011;2411;47.060;15.064;2024-03-23T03:45:07;1.13;;;1.13;;
4794;SDS011;2411;47.060;15.064;2024-03-23T03:47:33;1.10;;;1.00;;
4794;SDS011;2411;47.060;15.064;2024-03-23T03:49:59;1.20;;;1.10;;
4794;SDS011;2411;47.060;15.064;2024-03-23T03:52:25;1.20;;;1.20;;
4794;SDS011;2411;47.060;15.064;2024-03-23T03:54:51;1.23;;;1.13;;
4794;SDS011;2411;47.060;15.064;2024-03-23T03:57:20;3.70;;;1.07;;
4794;SDS011;2411;47.060;15.064;2024-03-23T03:59:46;1.27;;;1.20;;
4794;SDS011;2411;47.060;15.064;2024-03-23T04:02:13;1.10;;;1.10;;
4794;SDS011;2411;47.060;15.064;2024-03-23T04:04:39;5.77;;;1.13;;
4794;SDS011;2411;47.060;15.064;2024-03-23T04:07:05;1.30;;;1.20;;
4794;SDS011;2411;47.060;15.064;2024-03-23T04:09:31;1.37;;;1.27;;
4794;SDS011;2411;47.060;15.064;2024-03-23T04:11:57;2.03;;;1.17;;
4794;SDS011;2411;47.060;15.064;2024-03-23T04:14:23;1.60;;;1.50;;
4794;SDS011;2411;47.060;15.064;2024-03-23T04:16:48;0.80;;;0.80;;
4794;SDS011;2411;47.060;15.064;2024-03-23T04:19:15;1.67;;;1.37;;
4794;SDS011;2411;47.060;15.064;2024-03-23T04:21:41;1.07;;;1.07;;
4794;SDS011;2411;47.060;15.064;2024-03-23T04:24:07;1.33;;;1.20;;
4794;SDS011;2411;47.060;15.064;2024-03-23T04:26:42;1.47;;;1.27;;
4794;SDS011;2411;47.060;15.064;2024-03-23T04:29:08;2.23;;;1.07;;
4794;SDS011;2411;47.060;15.064;2024-03-23T04:31:34;1.40;;;1.30;;
4794;SDS011;2411;47.060;15.064;2024-03-23T04:34:01;1.07;;;1.07;;
4794;SDS011;2411;47.060;15.064;2024-03-23T04:36:27;1.13;;;1.03;;
4794;SDS011;2411;47.060;15.064;2024-03-23T04:38:53;1.03;;;1.03;;
4794;SDS011;2411;47.060;15.064;2024-03-23T04:41:19;0.93;;;0.93;;
4794;SDS011;2411;47.060;15.064;2024-03-23T04:43:45;2.50;;;1.20;;
4794;SDS011;2411;47.060;15.064;2024-03-23T04:46:11;1.30;;;1.20;;
4794;SDS011;2411;47.060;15.064;2024-03-23T04:48:37;1.10;;;1.10;;
4794;SDS011;2411;47.060;15.064;2024-03-23T04:51:03;1.30;;;1.30;;
4794;SDS011;2411;47.060;15.064;2024-03-23T04:53:29;1.43;;;1.30;;
4794;SDS011;2411;47.060;15.064;2024-03-23T04:55:56;1.20;;;1.20;;
4794;SDS011;2411;47.060;15.064;2024-03-23T04:58:22;1.20;;;1.20;;
4794;SDS011;2411;47.060;15.064;2024-03-23T05:00:53;1.30;;;1.20;;
4794;SDS011;2411;47.060;15.064;2024-03-23T05:03:22;1.53;;;1.43;;
4794;SDS011;2411;47.060;15.064;2024-03-23T05:05:49;1.40;;;1.40;;
4794;SDS011;2411;47.060;15.064;2024-03-23T05:08:16;1.20;;;1.13;;
4794;SDS011;2411;47.060;15.064;2024-03-23T05:10:42;2.73;;;1.07;;
4794;SDS011;2411;47.060;15.064;2024-03-23T05:13:09;1.23;;;1.20;;
4794;SDS011;2411;47.060;15.064;2024-03-23T05:15:35;1.13;;;1.13;;
4794;SDS011;2411;47.060;15.064;2024-03-23T05:18:01;1.20;;;1.10;;
4794;SDS011;2411;47.060;15.064;2024-03-23T05:20:27;1.20;;;1.20;;
4794;SDS011;2411;47.060;15.064;2024-03-23T05:22:54;0.90;;;0.90;;
4794;SDS011;2411;47.060;15.064;2024-03-23T05:25:20;1.17;;;1.10;;
4794;SDS011;2411;47.060;15.064;2024-03-23T05:27:47;2.80;;;2.30;;
4794;SDS011;2411;47.060;15.064;2024-03-23T05:30:13;1.80;;;1.70;;
4794;SDS011;2411;47.060;15.064;2024-03-23T05:32:39;2.43;;;1.40;;
4794;SDS011;2411;47.060;15.064;2024-03-23T05:35:07;1.43;;;1.30;;
4794;SDS011;2411;47.060;15.064;2024-03-23T05:37:34;1.73;;;1.60;;
4794;SDS011;2411;47.060;15.064;2024-03-23T05:40:01;1.60;;;1.50;;
4794;SDS011;2411;47.060;15.064;2024-03-23T05:42:29;2.57;;;2.10;;
4794;SDS011;2411;47.060;15.064;2024-03-23T05:44:55;2.40;;;2.20;;
4794;SDS011;2411;47.060;15.064;2024-03-23T05:47:21;2.77;;;2.37;;
4794;SDS011;2411;47.060;15.064;2024-03-23T05:49:47;2.70;;;2.47;;
4794;SDS011;2411;47.060;15.064;2024-03-23T05:52:13;8.70;;;4.80;;
4794;SDS011;2411;47.060;15.064;2024-03-23T05:54:39;6.23;;;5.20;;
4794;SDS011;2411;47.060;15.064;2024-03-23T05:57:05;3.10;;;2.70;;
4794;SDS011;2411;47.060;15.064;2024-03-23T05:59:34;2.50;;;2.30;;
4794;SDS011;2411;47.060;15.064;2024-03-23T06:02:00;3.50;;;3.20;;
4794;SDS011;2411;47.060;15.064;2024-03-23T06:04:26;2.00;;;1.90;;
4794;SDS011;2411;47.060;15.064;2024-03-23T06:06:52;2.37;;;2.17;;
4794;SDS011;2411;47.060;15.064;2024-03-23T06:09:18;3.20;;;2.50;;
4794;SDS011;2411;47.060;15.064;2024-03-23T06:11:45;2.37;;;2.27;;
4794;SDS011;2411;47.060;15.064;2024-03-23T06:14:11;2.33;;;2.23;;
4794;SDS011;2411;47.060;15.064;2024-03-23T06:16:37;2.30;;;2.20;;
4794;SDS011;2411;47.060;15.064;2024-03-23T06:19:03;3.60;;;2.37;;
4794;SDS011;2411;47.060;15.064;2024-03-23T06:21:32;3.77;;;2.40;;
4794;SDS011;2411;47.060;15.064;2024-03-23T06:23:58;3.03;;;2.30;;
4794;SDS011;2411;47.060;15.064;2024-03-23T06:26:24;3.93;;;2.17;;
4794;SDS011;2411;47.060;15.064;2024-03-23T06:28:51;2.43;;;2.03;;
4794;SDS011;2411;47.060;15.064;2024-03-23T06:31:17;4.53;;;2.40;;
4794;SDS011;2411;47.060;15.064;2024-03-23T06:33:43;5.20;;;2.37;;
4794;SDS011;2411;47.060;15.064;2024-03-23T06:36:09;2.73;;;2.53;;
4794;SDS011;2411;47.060;15.064;2024-03-23T06:38:36;6.30;;;4.53;;
4794;SDS011;2411;47.060;15.064;2024-03-23T06:41:05;9.37;;;5.70;;
4794;SDS011;2411;47.060;15.064;2024-03-23T06:43:31;9.77;;;6.73;;
4794;SDS011;2411;47.060;15.064;2024-03-23T06:45:58;8.83;;;5.53;;
4794;SDS011;2411;47.060;15.064;2024-03-23T06:48:24;8.60;;;5.77;;
4794;SDS011;2411;47.060;15.064;2024-03-23T06:50:54;10.13;;;6.50;;
4794;SDS011;2411;47.060;15.064;2024-03-23T06:53:24;14.63;;;6.90;;
4794;SDS011;2411;47.060;15.064;2024-03-23T06:55:50;9.73;;;5.40;;
4794;SDS011;2411;47.060;15.064;2024-03-23T06:58:18;5.30;;;3.73;;
4794;SDS011;2411;47.060;15.064;2024-03-23T07:00:45;6.10;;;3.47;;
4794;SDS011;2411;47.060;15.064;2024-03-23T07:03:11;3.17;;;2.87;;
4794;SDS011;2411;47.060;15.064;2024-03-23T07:05:37;2.17;;;1.90;;
4794;SDS011;2411;47.060;15.064;2024-03-23T07:08:03;2.03;;;1.83;;
4794;SDS011;2411;47.060;15.064;2024-03-23T07:10:30;2.23;;;2.03;;
4794;SDS011;2411;47.060;15.064;2024-03-23T07:12:56;4.40;;;2.20;;
4794;SDS011;2411;47.060;15.064;2024-03-23T07:15:22;2.07;;;1.60;;
4794;SDS011;2411;47.060;15.064;2024-03-23T07:17:48;1.70;;;1.60;;
4794;SDS011;2411;47.060;15.064;2024-03-23T07:20:14;1.60;;;1.50;;
4794;SDS011;2411;47.060;15.064;2024-03-23T07:22:41;1.90;;;1.80;;
4794;SDS011;2411;47.060;15.064;2024-03-23T07:25:07;2.63;;;1.60;;
4794;SDS011;2411;47.060;15.064;2024-03-23T07:27:33;3.13;;;1.80;;
4794;SDS011;2411;47.060;15.064;2024-03-23T07:29:59;2.90;;;1.97;;
4794;SDS011;2411;47.060;15.064;2024-03-23T07:32:26;3.77;;;1.90;;
4794;SDS011;2411;47.060;15.064;2024-03-23T07:34:52;2.00;;;1.90;;
4794;SDS011;2411;47.060;15.064;2024-03-23T07:37:18;3.33;;;1.70;;
4794;SDS011;2411;47.060;15.064;2024-03-23T07:39:44;2.80;;;1.90;;
4794;SDS011;2411;47.060;15.064;2024-03-23T07:42:10;2.63;;;2.43;;
4794;SDS011;2411;47.060;15.064;2024-03-23T07:44:36;3.20;;;2.47;;
4794;SDS011;2411;47.060;15.064;2024-03-23T07:47:03;2.13;;;1.73;;
4794;SDS011;2411;47.060;15.064;2024-03-23T07:49:29;3.23;;;2.27;;
4794;SDS011;2411;47.060;15.064;2024-03-23T07:51:55;3.30;;;2.40;;
4794;SDS011;2411;47.060;15.064;2024-03-23T07:54:21;3.63;;;2.57;;
4794;SDS011;2411;47.060;15.064;2024-03-23T07:56:47;4.47;;;2.50;;
4794;SDS011;2411;47.060;15.064;2024-03-23T07:59:13;8.80;;;4.93;;
4794;SDS011;2411;47.060;15.064;2024-03-23T08:01:39;3.87;;;3.57;;
4794;SDS011;2411;47.060;15.064;2024-03-23T08:04:05;3.60;;;3.30;;
4794;SDS011;2411;47.060;15.064;2024-03-23T08:06:31;5.77;;;4.00;;
4794;SDS011;2411;47.060;15.064;2024-03-23T08:08:57;3.37;;;3.13;;
4794;SDS011;2411;47.060;15.064;2024-03-23T08:11:27;3.20;;;2.90;;
4794;SDS011;2411;47.060;15.064;2024-03-23T08:13:54;3.80;;;3.30;;
4794;SDS011;2411;47.060;15.064;2024-03-23T08:16:21;4.30;;;3.87;;
4794;SDS011;2411;47.060;15.064;2024-03-23T08:18:48;4.40;;;3.93;;
4794;SDS011;2411;47.060;15.064;2024-03-23T08:21:14;4.53;;;3.47;;
4794;SDS011;2411;47.060;15.064;2024-03-23T08:23:40;6.73;;;4.40;;
4794;SDS011;2411;47.060;15.064;2024-03-23T08:26:11;6.67;;;3.63;;
4794;SDS011;2411;47.060;15.064;2024-03-23T08:28:38;6.60;;;3.87;;
4794;SDS011;2411;47.060;15.064;2024-03-23T08:31:06;3.53;;;3.17;;
4794;SDS011;2411;47.060;15.064;2024-03-23T08:33:33;3.47;;;3.17;;
4794;SDS011;2411;47.060;15.064;2024-03-23T08:36:03;4.50;;;3.23;;
4794;SDS011;2411;47.060;15.064;2024-03-23T08:38:31;4.93;;;3.40;;
4794;SDS011;2411;47.060;15.064;2024-03-23T08:41:01;4.13;;;3.27;;
4794;SDS011;2411;47.060;15.064;2024-03-23T08:43:28;4.70;;;3.50;;
4794;SDS011;2411;47.060;15.064;2024-03-23T08:48:40;3.20;;;3.00;;
4794;SDS011;2411;47.060;15.064;2024-03-23T08:51:11;4.50;;;3.30;;
4794;SDS011;2411;47.060;15.064;2024-03-23T08:53:39;2.50;;;2.20;;
4794;SDS011;2411;47.060;15.064;2024-03-23T08:56:06;3.97;;;2.97;;
4794;SDS011;2411;47.060;15.064;2024-03-23T08:58:33;4.57;;;3.00;;
4794;SDS011;2411;47.060;15.064;2024-03-23T09:01:10;7.53;;;2.53;;
4794;SDS011;2411;47.060;15.064;2024-03-23T09:03:38;3.10;;;2.80;;
4794;SDS011;2411;47.060;15.064;2024-03-23T09:06:11;3.13;;;2.70;;
4794;SDS011;2411;47.060;15.064;2024-03-23T09:08:38;5.10;;;2.43;;
4794;SDS011;2411;47.060;15.064;2024-03-23T09:11:10;3.70;;;2.60;;
4794;SDS011;2411;47.060;15.064;2024-03-23T09:13:37;6.33;;;3.10;;
4794;SDS011;2411;47.060;15.064;2024-03-23T09:16:04;6.30;;;3.23;;
4794;SDS011;2411;47.060;15.064;2024-03-23T09:18:32;5.40;;;4.00;;
4794;SDS011;2411;47.060;15.064;2024-03-23T09:20:59;4.17;;;3.03;;
4794;SDS011;2411;47.060;15.064;2024-03-23T09:23:25;27.17;;;4.97;;
4794;SDS011;2411;47.060;15.064;2024-03-23T09:25:51;5.40;;;3.10;;
4794;SDS011;2411;47.060;15.064;2024-03-23T09:28:17;8.63;;;4.90;;
4794;SDS011;2411;47.060;15.064;2024-03-23T09:30:43;11.43;;;5.57;;
4794;SDS011;2411;47.060;15.064;2024-03-23T09:33:09;5.80;;;3.90;;
4794;SDS011;2411;47.060;15.064;2024-03-23T09:35:40;6.20;;;3.77;;
4794;SDS011;2411;47.060;15.064;2024-03-23T09:38:06;6.33;;;3.13;;
4794;SDS011;2411;47.060;15.064;2024-03-23T09:40:34;4.87;;;3.63;;
4794;SDS011;2411;47.060;15.064;2024-03-23T09:43:06;3.77;;;3.37;;
4794;SDS011;2411;47.060;15.064;2024-03-23T09:45:32;3.57;;;3.27;;
4794;SDS011;2411;47.060;15.064;2024-03-23T09:48:01;4.50;;;2.90;;
4794;SDS011;2411;47.060;15.064;2024-03-23T09:50:27;3.60;;;3.30;;
4794;SDS011;2411;47.060;15.064;2024-03-23T09:52:53;5.57;;;3.30;;
4794;SDS011;2411;47.060;15.064;2024-03-23T09:55:19;3.90;;;3.17;;
4794;SDS011;2411;47.060;15.064;2024-03-23T09:57:45;2.67;;;2.47;;
4794;SDS011;2411;47.060;15.064;2024-03-23T10:00:11;2.93;;;2.60;;
4794;SDS011;2411;47.060;15.064;2024-03-23T10:02:38;4.40;;;2.93;;
4794;SDS011;2411;47.060;15.064;2024-03-23T10:05:04;3.27;;;2.97;;
4794;SDS011;2411;47.060;15.064;2024-03-23T10:07:45;3.27;;;2.67;;
4794;SDS011;2411;47.060;15.064;2024-03-23T10:10:11;3.33;;;2.60;;
4794;SDS011;2411;47.060;15.064;2024-03-23T10:12:39;4.17;;;3.17;;
4794;SDS011;2411;47.060;15.064;2024-03-23T10:15:18;2.40;;;2.27;;
4794;SDS011;2411;47.060;15.064;2024-03-23T10:17:44;2.90;;;2.60;;
4794;SDS011;2411;47.060;15.064;2024-03-23T10:20:10;3.37;;;3.00;;
4794;SDS011;2411;47.060;15.064;2024-03-23T10:22:39;3.33;;;3.03;;
4794;SDS011;2411;47.060;15.064;2024-03-23T10:25:09;3.30;;;3.00;;
4794;SDS011;2411;47.060;15.064;2024-03-23T10:27:36;3.47;;;2.73;;
4794;SDS011;2411;47.060;15.064;2024-03-23T10:30:11;3.10;;;2.60;;
4794;SDS011;2411;47.060;15.064;2024-03-23T10:32:40;3.43;;;2.90;;
4794;SDS011;2411;47.060;15.064;2024-03-23T10:35:21;4.07;;;3.17;;
4794;SDS011;2411;47.060;15.064;2024-03-23T10:37:47;5.07;;;3.17;;
4794;SDS011;2411;47.060;15.064;2024-03-23T10:40:17;2.90;;;2.70;;
4794;SDS011;2411;47.060;15.064;2024-03-23T10:42:46;3.37;;;3.07;;
4794;SDS011;2411;47.060;15.064;2024-03-23T10:45:12;3.03;;;2.80;;
4794;SDS011;2411;47.060;15.064;2024-03-23T10:47:38;2.97;;;2.77;;
4794;SDS011;2411;47.060;15.064;2024-03-23T10:50:04;2.60;;;2.40;;
4794;SDS011;2411;47.060;15.064;2024-03-23T10:52:32;6.70;;;3.00;;
4794;SDS011;2411;47.060;15.064;2024-03-23T10:54:59;3.00;;;2.77;;
4794;SDS011;2411;47.060;15.064;2024-03-23T10:57:47;3.30;;;2.90;;
4794;SDS011;2411;47.060;15.064;2024-03-23T11:00:19;4.90;;;3.33;;
4794;SDS011;2411;47.060;15.064;2024-03-23T11:02:50;6.37;;;3.17;;
4794;SDS011;2411;47.060;15.064;2024-03-23T11:05:31;3.23;;;2.93;;
4794;SDS011;2411;47.060;15.064;2024-03-23T11:07:57;3.33;;;3.00;;
4794;SDS011;2411;47.060;15.064;2024-03-23T11:10:27;2.97;;;2.70;;
4794;SDS011;2411;47.060;15.064;2024-03-23T11:13:09;2.80;;;2.60;;
4794;SDS011;2411;47.060;15.064;2024-03-23T11:15:47;3.63;;;3.30;;
4794;SDS011;2411;47.060;15.064;2024-03-23T11:18:19;3.60;;;2.50;;
4794;SDS011;2411;47.060;15.064;2024-03-23T11:20:46;3.20;;;3.00;;
4794;SDS011;2411;47.060;15.064;2024-03-23T11:23:27;3.10;;;2.67;;
4794;SDS011;2411;47.060;15.064;2024-03-23T11:25:54;2.90;;;2.60;;
4794;SDS011;2411;47.060;15.064;2024-03-23T11:28:20;8.17;;;3.37;;
4794;SDS011;2411;47.060;15.064;2024-03-23T11:30:47;3.17;;;2.70;;
4794;SDS011;2411;47.060;15.064;2024-03-23T11:33:13;4.07;;;2.93;;
4794;SDS011;2411;47.060;15.064;2024-03-23T11:35:39;5.10;;;3.27;;
4794;SDS011;2411;47.060;15.064;2024-03-23T11:38:09;5.90;;;3.37;;
4794;SDS011;2411;47.060;15.064;2024-03-23T11:43:07;4.13;;;2.87;;
4794;SDS011;2411;47.060;15.064;2024-03-23T11:45:47;3.83;;;3.53;;
4794;SDS011;2411;47.060;15.064;2024-03-23T11:48:18;3.57;;;2.90;;
4794;SDS011;2411;47.060;15.064;2024-03-23T11:50:46;4.37;;;3.50;;
4794;SDS011;2411;47.060;15.064;2024-03-23T11:55:50;4.27;;;3.83;;
4794;SDS011;2411;47.060;15.064;2024-03-23T11:58:18;4.73;;;3.93;;
4794;SDS011;2411;47.060;15.064;2024-03-23T12:00:51;5.53;;;4.20;;
4794;SDS011;2411;47.060;15.064;2024-03-23T12:03:18;4.27;;;3.87;;
4794;SDS011;2411;47.060;15.064;2024-03-23T12:05:47;4.20;;;3.80;;
4794;SDS011;2411;47.060;15.064;2024-03-23T12:10:43;5.03;;;3.67;;
4794;SDS011;2411;47.060;15.064;2024-03-23T12:13:11;7.10;;;4.13;;
4794;SDS011;2411;47.060;15.064;2024-03-23T12:15:39;4.10;;;3.80;;
4794;SDS011;2411;47.060;15.064;2024-03-23T12:18:06;3.90;;;3.60;;
4794;SDS011;2411;47.060;15.064;2024-03-23T12:20:33;7.73;;;4.10;;
4794;SDS011;2411;47.060;15.064;2024-03-23T12:23:06;6.53;;;4.87;;
4794;SDS011;2411;47.060;15.064;2024-03-23T12:25:34;4.80;;;4.30;;
4794;SDS011;2411;47.060;15.064;2024-03-23T12:28:00;8.87;;;4.30;;
4794;SDS011;2411;47.060;15.064;2024-03-23T12:30:26;5.13;;;4.20;;
4794;SDS011;2411;47.060;15.064;2024-03-23T12:32:52;5.00;;;4.30;;
4794;SDS011;2411;47.060;15.064;2024-03-23T12:35:18;6.13;;;4.20;;
4794;SDS011;2411;47.060;15.064;2024-03-23T12:37:44;7.90;;;4.60;;
4794;SDS011;2411;47.060;15.064;2024-03-23T12:40:10;12.20;;;4.00;;
4794;SDS011;2411;47.060;15.064;2024-03-23T12:42:36;4.40;;;4.00;;
4794;SDS011;2411;47.060;15.064;2024-03-23T12:45:03;6.53;;;5.43;;
4794;SDS011;2411;47.060;15.064;2024-03-23T12:47:30;4.37;;;3.60;;
4794;SDS011;2411;47.060;15.064;2024-03-23T12:49:56;4.33;;;3.93;;
4794;SDS011;2411;47.060;15.064;2024-03-23T12:52:22;4.63;;;4.13;;
4794;SDS011;2411;47.060;15.064;2024-03-23T12:54:56;5.40;;;4.30;;
4794;SDS011;2411;47.060;15.064;2024-03-23T12:57:23;4.40;;;4.00;;
4794;SDS011;2411;47.060;15.064;2024-03-23T12:59:52;5.60;;;4.27;;
4794;SDS011;2411;47.060;15.064;2024-03-23T13:02:22;6.23;;;5.37;;
4794;SDS011;2411;47.060;15.064;2024-03-23T13:04:54;7.03;;;4.17;;
4794;SDS011;2411;47.060;15.064;2024-03-23T13:07:21;5.67;;;4.50;;
4794;SDS011;2411;47.060;15.064;2024-03-23T13:09:50;7.13;;;4.90;;
4794;SDS011;2411;47.060;15.064;2024-03-23T13:12:18;5.57;;;4.30;;
4794;SDS011;2411;47.060;15.064;2024-03-23T13:14:47;4.90;;;4.20;;
4794;SDS011;2411;47.060;15.064;2024-03-23T13:17:13;4.70;;;4.20;;
4794;SDS011;2411;47.060;15.064;2024-03-23T13:19:40;7.00;;;4.23;;
4794;SDS011;2411;47.060;15.064;2024-03-23T13:22:07;6.17;;;4.67;;
4794;SDS011;2411;47.060;15.064;2024-03-23T13:24:33;5.37;;;4.87;;
4794;SDS011;2411;47.060;15.064;2024-03-23T13:26:59;6.20;;;5.00;;
4794;SDS011;2411;47.060;15.064;2024-03-23T13:29:25;5.97;;;4.77;;
4794;SDS011;2411;47.060;15.064;2024-03-23T13:31:52;5.10;;;4.60;;
4794;SDS011;2411;47.060;15.064;2024-03-23T13:34:19;10.60;;;4.40;;
4794;SDS011;2411;47.060;15.064;2024-03-23T13:36:45;4.60;;;4.20;;
4794;SDS011;2411;47.060;15.064;2024-03-23T13:39:12;4.80;;;4.10;;
4794;SDS011;2411;47.060;15.064;2024-03-23T13:41:39;10.00;;;4.73;;
4794;SDS011;2411;47.060;15.064;2024-03-23T13:44:10;5.20;;;4.60;;
4794;SDS011;2411;47.060;15.064;2024-03-23T13:46:38;6.33;;;4.60;;
4794;SDS011;2411;47.060;15.064;2024-03-23T13:49:05;4.87;;;4.37;;
4794;SDS011;2411;47.060;15.064;2024-03-23T13:51:31;6.23;;;4.73;;
4794;SDS011;2411;47.060;15.064;2024-03-23T13:53:58;5.10;;;4.50;;
4794;SDS011;2411;47.060;15.064;2024-03-23T13:56:29;4.47;;;4.07;;
4794;SDS011;2411;47.060;15.064;2024-03-23T13:58:56;6.57;;;4.30;;
4794;SDS011;2411;47.060;15.064;2024-03-23T14:01:23;5.53;;;4.80;;
4794;SDS011;2411;47.060;15.064;2024-03-23T14:03:49;6.53;;;5.40;;
4794;SDS011;2411;47.060;15.064;2024-03-23T14:06:15;6.67;;;4.43;;
4794;SDS011;2411;47.060;15.064;2024-03-23T14:08:41;5.40;;;4.90;;
4794;SDS011;2411;47.060;15.064;2024-03-23T14:11:08;6.60;;;5.10;;
4794;SDS011;2411;47.060;15.064;2024-03-23T14:13:35;7.50;;;5.23;;
4794;SDS011;2411;47.060;15.064;2024-03-23T14:16:01;6.40;;;5.40;;
4794;SDS011;2411;47.060;15.064;2024-03-23T14:18:27;9.33;;;5.27;;
4794;SDS011;2411;47.060;15.064;2024-03-23T14:20:58;6.27;;;5.50;;
4794;SDS011;2411;47.060;15.064;2024-03-23T14:23:28;8.37;;;5.40;;
4794;SDS011;2411;47.060;15.064;2024-03-23T14:25:56;8.53;;;4.70;;
4794;SDS011;2411;47.060;15.064;2024-03-23T14:28:25;5.83;;;5.20;;
4794;SDS011;2411;47.060;15.064;2024-03-23T14:30:51;5.63;;;4.97;;
4794;SDS011;2411;47.060;15.064;2024-03-23T14:33:21;6.70;;;5.53;;
4794;SDS011;2411;47.060;15.064;2024-03-23T14:35:54;5.40;;;4.53;;
4794;SDS011;2411;47.060;15.064;2024-03-23T14:38:23;7.13;;;5.13;;
4794;SDS011;2411;47.060;15.064;2024-03-23T14:40:49;5.90;;;4.40;;
4794;SDS011;2411;47.060;15.064;2024-03-23T14:43:18;5.07;;;4.57;;
4794;SDS011;2411;47.060;15.064;2024-03-23T14:48:36;5.57;;;4.50;;
4794;SDS011;2411;47.060;15.064;2024-03-23T14:51:03;5.27;;;4.03;;
4794;SDS011;2411;47.060;15.064;2024-03-23T14:53:33;8.67;;;5.10;;
4794;SDS011;2411;47.060;15.064;2024-03-23T14:56:01;6.73;;;4.80;;
4794;SDS011;2411;47.060;15.064;2024-03-23T14:58:28;7.00;;;4.50;;
4794;SDS011;2411;47.060;15.064;2024-03-23T15:01:07;4.03;;;3.73;;
4794;SDS011;2411;47.060;15.064;2024-03-23T15:03:35;6.23;;;4.30;;
4794;SDS011;2411;47.060;15.064;2024-03-23T15:06:01;4.33;;;3.87;;
4794;SDS011;2411;47.060;15.064;2024-03-23T15:08:28;4.73;;;3.97;;
4794;SDS011;2411;47.060;15.064;2024-03-23T15:10:54;4.80;;;4.20;;
4794;SDS011;2411;47.060;15.064;2024-03-23T15:13:23;5.00;;;4.40;;
4794;SDS011;2411;47.060;15.064;2024-03-23T15:15:49;5.53;;;4.27;;
4794;SDS011;2411;47.060;15.064;2024-03-23T15:18:17;6.43;;;4.13;;
4794;SDS011;2411;47.060;15.064;2024-03-23T15:20:54;4.60;;;4.17;;
4794;SDS011;2411;47.060;15.064;2024-03-23T15:23:21;4.13;;;3.73;;
4794;SDS011;2411;47.060;15.064;2024-03-23T15:26:21;2.90;;;2.50;;
4794;SDS011;2411;47.060;15.064;2024-03-23T15:28:41;2.10;;;2.00;;
4794;SDS011;2411;47.060;15.064;2024-03-23T15:31:27;1.23;;;1.17;;
4794;SDS011;2411;47.060;15.064;2024-03-23T15:33:55;2.47;;;1.00;;
4794;SDS011;2411;47.060;15.064;2024-03-23T15:36:21;2.53;;;0.83;;
4794;SDS011;2411;47.060;15.064;2024-03-23T15:38:47;0.60;;;0.60;;
4794;SDS011;2411;47.060;15.064;2024-03-23T15:41:14;3.27;;;1.00;;
4794;SDS011;2411;47.060;15.064;2024-03-23T15:43:40;17.93;;;2.00;;
4794;SDS011;2411;47.060;15.064;2024-03-23T15:46:06;2.50;;;0.60;;
4794;SDS011;2411;47.060;15.064;2024-03-23T15:48:33;14.20;;;2.93;;
4794;SDS011;2411;47.060;15.064;2024-03-23T15:51:01;0.47;;;0.47;;
4794;SDS011;2411;47.060;15.064;2024-03-23T15:53:29;2.77;;;0.53;;
4794;SDS011;2411;47.060;15.064;2024-03-23T15:56:02;2.80;;;0.67;;
4794;SDS011;2411;47.060;15.064;2024-03-23T15:58:29;2.30;;;0.50;;
4794;SDS011;2411;47.060;15.064;2024-03-23T16:03:24;13.73;;;0.60;;
4794;SDS011;2411;47.060;15.064;2024-03-23T16:05:56;0.60;;;0.60;;
4794;SDS011;2411;47.060;15.064;2024-03-23T16:08:24;1.57;;;0.70;;
4794;SDS011;2411;47.060;15.064;2024-03-23T16:10:51;0.40;;;0.40;;